Terminal Aerodrome Forecast
Issued by NWS Wilmington, NC

Home | Current Version | Previous Version | Text Only | Print | Product List | Glossary On
Versions: 1 2 3 4 5 6 7 8 9 10 11 12 13 14
000
FTUS42 KILM 251720
TAFLBT
TAF
KLBT 251720Z 2518/2618 20010KT P6SM BKN050
     FM252100 18010KT P6SM BKN045
     FM252200 18009KT P6SM SCT045
     FM260100 16007KT P6SM SCT200
     FM260800 VRB03KT P6SM BKN250
     FM261300 VRB03KT P6SM BKN050
     FM261600 16007KT P6SM BKN040=

USA.gov is the U.S. government's official web portal to all federal, state and local government web resources and services.